sensor_id;sensor_type;location;lat;lon;timestamp;temperature;humidity
45012;DHT22;63444;48.148;11.542;2023-02-04T00:01:58;5.60;99.90
45012;DHT22;63444;48.148;11.542;2023-02-04T00:04:23;5.60;99.90
45012;DHT22;63444;48.148;11.542;2023-02-04T00:06:49;5.70;99.90
45012;DHT22;63444;48.148;11.542;2023-02-04T00:09:14;5.60;99.90
45012;DHT22;63444;48.148;11.542;2023-02-04T00:11:41;5.60;99.90
45012;DHT22;63444;48.148;11.542;2023-02-04T00:14:07;5.60;99.90
45012;DHT22;63444;48.148;11.542;2023-02-04T00:16:33;5.60;99.90
45012;DHT22;63444;48.148;11.542;2023-02-04T00:18:58;5.60;99.90
45012;DHT22;63444;48.148;11.542;2023-02-04T00:21:24;5.60;99.90
45012;DHT22;63444;48.148;11.542;2023-02-04T00:23:50;5.60;99.90
45012;DHT22;63444;48.148;11.542;2023-02-04T00:26:16;5.60;99.90
45012;DHT22;63444;48.148;11.542;2023-02-04T00:28:41;5.60;99.90
45012;DHT22;63444;48.148;11.542;2023-02-04T00:31:07;5.60;99.90
45012;DHT22;63444;48.148;11.542;2023-02-04T00:33:33;5.60;99.90
45012;DHT22;63444;48.148;11.542;2023-02-04T00:35:58;5.50;99.90
45012;DHT22;63444;48.148;11.542;2023-02-04T00:38:24;5.60;99.90
45012;DHT22;63444;48.148;11.542;2023-02-04T00:40:50;5.60;99.90
45012;DHT22;63444;48.148;11.542;2023-02-04T00:43:15;5.60;99.90
45012;DHT22;63444;48.148;11.542;2023-02-04T00:45:41;5.60;99.90
45012;DHT22;63444;48.148;11.542;2023-02-04T00:48:07;5.70;99.90
45012;DHT22;63444;48.148;11.542;2023-02-04T00:50:32;5.60;99.90
45012;DHT22;63444;48.148;11.542;2023-02-04T00:53:00;5.60;99.90
45012;DHT22;63444;48.148;11.542;2023-02-04T00:55:26;5.60;99.90
45012;DHT22;63444;48.148;11.542;2023-02-04T00:57:52;5.60;99.90
45012;DHT22;63444;48.148;11.542;2023-02-04T01:00:18;5.60;99.90
45012;DHT22;63444;48.148;11.542;2023-02-04T01:02:43;5.70;99.90
45012;DHT22;63444;48.148;11.542;2023-02-04T01:05:09;5.60;99.90
45012;DHT22;63444;48.148;11.542;2023-02-04T01:07:35;5.60;99.90
45012;DHT22;63444;48.148;11.542;2023-02-04T01:10:00;5.50;99.90
45012;DHT22;63444;48.148;11.542;2023-02-04T01:12:26;5.60;99.90
45012;DHT22;63444;48.148;11.542;2023-02-04T01:14:54;5.60;99.90
45012;DHT22;63444;48.148;11.542;2023-02-04T01:17:19;5.70;99.90
45012;DHT22;63444;48.148;11.542;2023-02-04T01:19:45;5.60;99.90
45012;DHT22;63444;48.148;11.542;2023-02-04T01:22:11;5.50;99.90
45012;DHT22;63444;48.148;11.542;2023-02-04T01:24:37;5.50;99.90
45012;DHT22;63444;48.148;11.542;2023-02-04T01:27:02;5.50;99.90
45012;DHT22;63444;48.148;11.542;2023-02-04T01:29:29;5.50;99.90
45012;DHT22;63444;48.148;11.542;2023-02-04T01:31:54;5.60;99.90
45012;DHT22;63444;48.148;11.542;2023-02-04T01:34:20;5.60;99.90
45012;DHT22;63444;48.148;11.542;2023-02-04T01:36:46;5.60;99.90
45012;DHT22;63444;48.148;11.542;2023-02-04T01:39:11;5.60;99.90
45012;DHT22;63444;48.148;11.542;2023-02-04T01:41:38;5.70;99.90
45012;DHT22;63444;48.148;11.542;2023-02-04T01:44:04;5.60;99.90
45012;DHT22;63444;48.148;11.542;2023-02-04T01:46:29;5.70;99.90
45012;DHT22;63444;48.148;11.542;2023-02-04T01:49:02;5.60;99.90
45012;DHT22;63444;48.148;11.542;2023-02-04T01:51:28;5.70;99.90
45012;DHT22;63444;48.148;11.542;2023-02-04T01:53:56;5.70;99.90
45012;DHT22;63444;48.148;11.542;2023-02-04T01:56:24;5.70;99.90
45012;DHT22;63444;48.148;11.542;2023-02-04T01:58:54;5.70;99.90
45012;DHT22;63444;48.148;11.542;2023-02-04T02:01:38;5.70;99.90
45012;DHT22;63444;48.148;11.542;2023-02-04T02:04:07;5.80;99.90
45012;DHT22;63444;48.148;11.542;2023-02-04T02:06:35;5.80;99.90
45012;DHT22;63444;48.148;11.542;2023-02-04T02:09:02;5.80;99.90
45012;DHT22;63444;48.148;11.542;2023-02-04T02:11:28;5.80;99.90
45012;DHT22;63444;48.148;11.542;2023-02-04T02:13:55;5.80;99.90
45012;DHT22;63444;48.148;11.542;2023-02-04T02:16:21;5.90;99.90
45012;DHT22;63444;48.148;11.542;2023-02-04T02:18:47;5.80;99.90
45012;DHT22;63444;48.148;11.542;2023-02-04T02:21:15;5.80;99.90
45012;DHT22;63444;48.148;11.542;2023-02-04T02:23:47;5.90;99.90
45012;DHT22;63444;48.148;11.542;2023-02-04T02:26:15;5.90;99.90
45012;DHT22;63444;48.148;11.542;2023-02-04T02:28:43;5.90;99.90
45012;DHT22;63444;48.148;11.542;2023-02-04T02:31:10;5.90;99.90
45012;DHT22;63444;48.148;11.542;2023-02-04T02:33:36;5.90;99.90
45012;DHT22;63444;48.148;11.542;2023-02-04T02:36:02;5.90;99.90
45012;DHT22;63444;48.148;11.542;2023-02-04T02:38:27;5.90;99.90
45012;DHT22;63444;48.148;11.542;2023-02-04T02:40:54;5.90;99.90
45012;DHT22;63444;48.148;11.542;2023-02-04T02:43:22;5.90;99.90
45012;DHT22;63444;48.148;11.542;2023-02-04T02:45:49;5.90;99.90
45012;DHT22;63444;48.148;11.542;2023-02-04T02:48:15;5.90;99.90
45012;DHT22;63444;48.148;11.542;2023-02-04T02:50:42;5.90;99.90
45012;DHT22;63444;48.148;11.542;2023-02-04T02:53:13;5.90;99.90
45012;DHT22;63444;48.148;11.542;2023-02-04T02:55:39;5.90;99.90
45012;DHT22;63444;48.148;11.542;2023-02-04T02:58:22;5.90;99.90
45012;DHT22;63444;48.148;11.542;2023-02-04T03:00:48;5.90;99.90
45012;DHT22;63444;48.148;11.542;2023-02-04T03:03:18;5.80;99.90
45012;DHT22;63444;48.148;11.542;2023-02-04T03:05:49;5.80;99.90
45012;DHT22;63444;48.148;11.542;2023-02-04T03:08:16;5.90;99.90
45012;DHT22;63444;48.148;11.542;2023-02-04T03:10:43;5.80;99.90
45012;DHT22;63444;48.148;11.542;2023-02-04T03:13:11;5.80;99.90
45012;DHT22;63444;48.148;11.542;2023-02-04T03:15:37;5.80;99.90
45012;DHT22;63444;48.148;11.542;2023-02-04T03:18:04;5.70;99.90
45012;DHT22;63444;48.148;11.542;2023-02-04T03:20:30;5.70;99.90
45012;DHT22;63444;48.148;11.542;2023-02-04T03:22:58;5.70;99.90
45012;DHT22;63444;48.148;11.542;2023-02-04T03:25:25;5.70;99.90
45012;DHT22;63444;48.148;11.542;2023-02-04T03:27:54;5.60;99.90
45012;DHT22;63444;48.148;11.542;2023-02-04T03:30:21;5.60;99.90
45012;DHT22;63444;48.148;11.542;2023-02-04T03:32:47;5.60;99.90
45012;DHT22;63444;48.148;11.542;2023-02-04T03:35:13;5.60;99.90
45012;DHT22;63444;48.148;11.542;2023-02-04T03:37:38;5.60;99.90
45012;DHT22;63444;48.148;11.542;2023-02-04T03:40:05;5.60;99.90
45012;DHT22;63444;48.148;11.542;2023-02-04T03:42:30;5.60;99.90
45012;DHT22;63444;48.148;11.542;2023-02-04T03:44:56;5.50;99.90
45012;DHT22;63444;48.148;11.542;2023-02-04T03:47:22;5.50;99.90
45012;DHT22;63444;48.148;11.542;2023-02-04T03:49:47;5.60;99.90
45012;DHT22;63444;48.148;11.542;2023-02-04T03:52:13;5.50;99.90
45012;DHT22;63444;48.148;11.542;2023-02-04T03:54:38;5.50;99.90
45012;DHT22;63444;48.148;11.542;2023-02-04T03:57:04;5.60;99.90
45012;DHT22;63444;48.148;11.542;2023-02-04T03:59:30;5.60;99.90
45012;DHT22;63444;48.148;11.542;2023-02-04T04:01:55;5.60;99.90
45012;DHT22;63444;48.148;11.542;2023-02-04T04:04:22;5.60;99.90
45012;DHT22;63444;48.148;11.542;2023-02-04T04:06:48;5.60;99.90
45012;DHT22;63444;48.148;11.542;2023-02-04T04:09:14;5.60;99.90
45012;DHT22;63444;48.148;11.542;2023-02-04T04:11:39;5.60;99.90
45012;DHT22;63444;48.148;11.542;2023-02-04T04:14:05;5.60;99.90
45012;DHT22;63444;48.148;11.542;2023-02-04T04:16:30;5.50;99.90
45012;DHT22;63444;48.148;11.542;2023-02-04T04:18:56;5.50;99.90
45012;DHT22;63444;48.148;11.542;2023-02-04T04:21:22;5.50;99.90
45012;DHT22;63444;48.148;11.542;2023-02-04T04:23:47;5.50;99.90
45012;DHT22;63444;48.148;11.542;2023-02-04T04:26:13;5.50;99.90
45012;DHT22;63444;48.148;11.542;2023-02-04T04:28:38;5.40;99.90
45012;DHT22;63444;48.148;11.542;2023-02-04T04:31:04;5.40;99.90
45012;DHT22;63444;48.148;11.542;2023-02-04T04:33:29;5.40;99.90
45012;DHT22;63444;48.148;11.542;2023-02-04T04:35:55;5.40;99.90
45012;DHT22;63444;48.148;11.542;2023-02-04T04:38:21;5.30;99.90
45012;DHT22;63444;48.148;11.542;2023-02-04T04:40:46;5.30;99.90
45012;DHT22;63444;48.148;11.542;2023-02-04T04:43:13;5.30;99.90
45012;DHT22;63444;48.148;11.542;2023-02-04T04:45:38;5.20;99.90
45012;DHT22;63444;48.148;11.542;2023-02-04T04:48:04;5.20;99.90
45012;DHT22;63444;48.148;11.542;2023-02-04T04:50:30;5.20;99.90
45012;DHT22;63444;48.148;11.542;2023-02-04T04:52:55;5.20;99.90
45012;DHT22;63444;48.148;11.542;2023-02-04T04:55:21;5.10;99.90
45012;DHT22;63444;48.148;11.542;2023-02-04T04:57:47;5.10;99.90
45012;DHT22;63444;48.148;11.542;2023-02-04T05:00:17;5.10;99.90
45012;DHT22;63444;48.148;11.542;2023-02-04T05:02:43;5.00;99.90
45012;DHT22;63444;48.148;11.542;2023-02-04T05:05:09;4.90;99.90
45012;DHT22;63444;48.148;11.542;2023-02-04T05:07:35;4.90;99.90
45012;DHT22;63444;48.148;11.542;2023-02-04T05:10:02;4.90;99.90
45012;DHT22;63444;48.148;11.542;2023-02-04T05:12:27;4.90;99.90
45012;DHT22;63444;48.148;11.542;2023-02-04T05:14:53;4.80;99.90
45012;DHT22;63444;48.148;11.542;2023-02-04T05:17:18;4.80;99.90
45012;DHT22;63444;48.148;11.542;2023-02-04T05:19:44;4.80;99.90
45012;DHT22;63444;48.148;11.542;2023-02-04T05:22:09;4.80;99.90
45012;DHT22;63444;48.148;11.542;2023-02-04T05:24:35;4.80;99.90
45012;DHT22;63444;48.148;11.542;2023-02-04T05:27:01;4.80;99.90
45012;DHT22;63444;48.148;11.542;2023-02-04T05:29:26;4.80;99.90
45012;DHT22;63444;48.148;11.542;2023-02-04T05:31:52;4.80;99.90
45012;DHT22;63444;48.148;11.542;2023-02-04T05:34:18;4.90;99.90
45012;DHT22;63444;48.148;11.542;2023-02-04T05:36:43;4.90;99.90
45012;DHT22;63444;48.148;11.542;2023-02-04T05:39:09;4.90;99.90
45012;DHT22;63444;48.148;11.542;2023-02-04T05:41:34;4.90;99.90
45012;DHT22;63444;48.148;11.542;2023-02-04T05:44:00;4.90;99.90
45012;DHT22;63444;48.148;11.542;2023-02-04T05:46:25;4.90;99.90
45012;DHT22;63444;48.148;11.542;2023-02-04T05:48:51;4.90;99.90
45012;DHT22;63444;48.148;11.542;2023-02-04T05:51:17;4.90;99.90
45012;DHT22;63444;48.148;11.542;2023-02-04T05:53:43;4.90;99.90
45012;DHT22;63444;48.148;11.542;2023-02-04T05:56:08;4.90;99.90
45012;DHT22;63444;48.148;11.542;2023-02-04T05:58:34;4.90;99.90
45012;DHT22;63444;48.148;11.542;2023-02-04T06:01:00;4.90;99.90
45012;DHT22;63444;48.148;11.542;2023-02-04T06:03:26;4.90;99.90
45012;DHT22;63444;48.148;11.542;2023-02-04T06:05:52;4.90;99.90
45012;DHT22;63444;48.148;11.542;2023-02-04T06:08:18;4.90;99.90
45012;DHT22;63444;48.148;11.542;2023-02-04T06:10:44;4.90;99.90
45012;DHT22;63444;48.148;11.542;2023-02-04T06:13:09;5.00;99.90
45012;DHT22;63444;48.148;11.542;2023-02-04T06:15:35;4.90;99.90
45012;DHT22;63444;48.148;11.542;2023-02-04T06:18:01;4.90;99.90
45012;DHT22;63444;48.148;11.542;2023-02-04T06:20:26;4.90;99.90
45012;DHT22;63444;48.148;11.542;2023-02-04T06:22:52;4.90;99.90
45012;DHT22;63444;48.148;11.542;2023-02-04T06:25:19;5.00;99.90
45012;DHT22;63444;48.148;11.542;2023-02-04T06:27:45;4.90;99.90
45012;DHT22;63444;48.148;11.542;2023-02-04T06:30:11;4.90;99.90
45012;DHT22;63444;48.148;11.542;2023-02-04T06:32:37;4.90;99.90
45012;DHT22;63444;48.148;11.542;2023-02-04T06:35:03;4.90;99.90
45012;DHT22;63444;48.148;11.542;2023-02-04T06:37:28;4.90;99.90
45012;DHT22;63444;48.148;11.542;2023-02-04T06:39:54;4.90;99.90
45012;DHT22;63444;48.148;11.542;2023-02-04T06:42:22;4.90;99.90
45012;DHT22;63444;48.148;11.542;2023-02-04T06:44:49;5.00;99.90
45012;DHT22;63444;48.148;11.542;2023-02-04T06:47:16;5.10;99.90
45012;DHT22;63444;48.148;11.542;2023-02-04T06:49:42;5.00;99.90
45012;DHT22;63444;48.148;11.542;2023-02-04T06:52:07;5.00;99.90
45012;DHT22;63444;48.148;11.542;2023-02-04T06:54:33;5.00;99.90
45012;DHT22;63444;48.148;11.542;2023-02-04T06:56:59;5.00;99.90
45012;DHT22;63444;48.148;11.542;2023-02-04T06:59:38;5.00;99.90
45012;DHT22;63444;48.148;11.542;2023-02-04T07:02:05;5.00;99.90
45012;DHT22;63444;48.148;11.542;2023-02-04T07:04:32;4.90;99.90
45012;DHT22;63444;48.148;11.542;2023-02-04T07:06:57;4.90;99.90
45012;DHT22;63444;48.148;11.542;2023-02-04T07:09:23;4.90;99.90
45012;DHT22;63444;48.148;11.542;2023-02-04T07:11:48;4.90;99.90
45012;DHT22;63444;48.148;11.542;2023-02-04T07:14:14;4.90;99.90
45012;DHT22;63444;48.148;11.542;2023-02-04T07:16:40;5.00;99.90
45012;DHT22;63444;48.148;11.542;2023-02-04T07:19:06;5.00;99.90
45012;DHT22;63444;48.148;11.542;2023-02-04T07:21:31;5.20;99.90
45012;DHT22;63444;48.148;11.542;2023-02-04T07:23:59;5.10;99.90
45012;DHT22;63444;48.148;11.542;2023-02-04T07:26:25;5.20;99.90
45012;DHT22;63444;48.148;11.542;2023-02-04T07:28:51;5.20;99.90
45012;DHT22;63444;48.148;11.542;2023-02-04T07:31:16;5.10;99.90
45012;DHT22;63444;48.148;11.542;2023-02-04T07:33:42;5.20;99.90
45012;DHT22;63444;48.148;11.542;2023-02-04T07:36:07;5.20;99.90
45012;DHT22;63444;48.148;11.542;2023-02-04T07:38:33;5.20;99.90
45012;DHT22;63444;48.148;11.542;2023-02-04T07:40:59;5.20;99.90
45012;DHT22;63444;48.148;11.542;2023-02-04T07:43:24;5.10;99.90
45012;DHT22;63444;48.148;11.542;2023-02-04T07:45:50;5.20;99.90
45012;DHT22;63444;48.148;11.542;2023-02-04T07:48:15;5.20;99.90
45012;DHT22;63444;48.148;11.542;2023-02-04T07:50:41;5.20;99.90
45012;DHT22;63444;48.148;11.542;2023-02-04T07:53:08;5.10;99.90
45012;DHT22;63444;48.148;11.542;2023-02-04T07:55:33;5.10;99.90
45012;DHT22;63444;48.148;11.542;2023-02-04T07:57:59;5.20;99.90
45012;DHT22;63444;48.148;11.542;2023-02-04T08:00:25;5.20;99.90
45012;DHT22;63444;48.148;11.542;2023-02-04T08:02:51;5.20;99.90
45012;DHT22;63444;48.148;11.542;2023-02-04T08:05:17;5.20;99.90
45012;DHT22;63444;48.148;11.542;2023-02-04T08:07:42;5.20;99.90
45012;DHT22;63444;48.148;11.542;2023-02-04T08:10:09;5.20;99.90
45012;DHT22;63444;48.148;11.542;2023-02-04T08:12:35;5.20;99.90
45012;DHT22;63444;48.148;11.542;2023-02-04T08:15:01;5.20;99.90
45012;DHT22;63444;48.148;11.542;2023-02-04T08:17:27;5.20;99.90
45012;DHT22;63444;48.148;11.542;2023-02-04T08:19:54;5.20;99.90
45012;DHT22;63444;48.148;11.542;2023-02-04T08:22:21;5.20;99.90
45012;DHT22;63444;48.148;11.542;2023-02-04T08:24:46;5.20;99.90
45012;DHT22;63444;48.148;11.542;2023-02-04T08:27:12;5.20;99.90
45012;DHT22;63444;48.148;11.542;2023-02-04T08:29:38;5.30;99.90
45012;DHT22;63444;48.148;11.542;2023-02-04T08:32:04;5.30;99.90
45012;DHT22;63444;48.148;11.542;2023-02-04T08:34:29;5.30;99.90
45012;DHT22;63444;48.148;11.542;2023-02-04T08:36:55;5.40;99.90
45012;DHT22;63444;48.148;11.542;2023-02-04T08:39:21;5.40;99.90
45012;DHT22;63444;48.148;11.542;2023-02-04T08:41:46;5.40;99.90
45012;DHT22;63444;48.148;11.542;2023-02-04T08:44:14;5.50;99.90
45012;DHT22;63444;48.148;11.542;2023-02-04T08:46:41;5.50;99.90
45012;DHT22;63444;48.148;11.542;2023-02-04T08:49:07;5.50;99.90
45012;DHT22;63444;48.148;11.542;2023-02-04T08:51:32;5.50;99.90
45012;DHT22;63444;48.148;11.542;2023-02-04T08:53:58;5.60;99.90
45012;DHT22;63444;48.148;11.542;2023-02-04T08:56:23;5.60;99.90
45012;DHT22;63444;48.148;11.542;2023-02-04T08:58:49;5.70;99.90
45012;DHT22;63444;48.148;11.542;2023-02-04T09:01:17;5.70;99.90
45012;DHT22;63444;48.148;11.542;2023-02-04T09:03:43;5.80;99.90
45012;DHT22;63444;48.148;11.542;2023-02-04T09:06:09;5.90;99.90
45012;DHT22;63444;48.148;11.542;2023-02-04T09:08:35;6.00;99.90
45012;DHT22;63444;48.148;11.542;2023-02-04T09:11:01;6.10;99.90
45012;DHT22;63444;48.148;11.542;2023-02-04T09:13:27;6.20;99.90
45012;DHT22;63444;48.148;11.542;2023-02-04T09:15:53;6.30;99.90
45012;DHT22;63444;48.148;11.542;2023-02-04T09:18:19;6.30;99.90
45012;DHT22;63444;48.148;11.542;2023-02-04T09:20:47;6.20;99.90
45012;DHT22;63444;48.148;11.542;2023-02-04T09:23:14;6.20;99.90
45012;DHT22;63444;48.148;11.542;2023-02-04T09:25:41;6.20;99.90
45012;DHT22;63444;48.148;11.542;2023-02-04T09:28:07;6.20;99.90
45012;DHT22;63444;48.148;11.542;2023-02-04T09:30:36;6.20;99.90
45012;DHT22;63444;48.148;11.542;2023-02-04T09:33:02;6.20;99.90
45012;DHT22;63444;48.148;11.542;2023-02-04T09:35:28;6.30;99.90
45012;DHT22;63444;48.148;11.542;2023-02-04T09:37:53;6.20;99.90
45012;DHT22;63444;48.148;11.542;2023-02-04T09:40:19;6.20;99.90
45012;DHT22;63444;48.148;11.542;2023-02-04T09:42:49;6.20;99.90
45012;DHT22;63444;48.148;11.542;2023-02-04T09:45:18;6.20;99.90
45012;DHT22;63444;48.148;11.542;2023-02-04T09:47:45;6.30;99.90
45012;DHT22;63444;48.148;11.542;2023-02-04T09:50:19;6.30;99.90
45012;DHT22;63444;48.148;11.542;2023-02-04T09:52:47;6.30;99.90
45012;DHT22;63444;48.148;11.542;2023-02-04T09:55:15;6.30;99.90
45012;DHT22;63444;48.148;11.542;2023-02-04T09:57:41;6.40;99.90
45012;DHT22;63444;48.148;11.542;2023-02-04T10:00:14;6.40;99.90
45012;DHT22;63444;48.148;11.542;2023-02-04T10:02:40;6.40;99.90
45012;DHT22;63444;48.148;11.542;2023-02-04T10:05:08;6.40;99.90
45012;DHT22;63444;48.148;11.542;2023-02-04T10:07:37;6.40;99.90
45012;DHT22;63444;48.148;11.542;2023-02-04T10:10:03;6.40;99.90
45012;DHT22;63444;48.148;11.542;2023-02-04T10:12:29;6.40;99.90
45012;DHT22;63444;48.148;11.542;2023-02-04T10:14:57;6.30;99.90
45012;DHT22;63444;48.148;11.542;2023-02-04T10:17:26;6.20;99.90
45012;DHT22;63444;48.148;11.542;2023-02-04T10:19:51;6.20;99.90
45012;DHT22;63444;48.148;11.542;2023-02-04T10:22:19;6.20;99.90
45012;DHT22;63444;48.148;11.542;2023-02-04T10:24:45;6.10;99.90
45012;DHT22;63444;48.148;11.542;2023-02-04T10:27:12;6.30;99.90
45012;DHT22;63444;48.148;11.542;2023-02-04T10:29:53;6.30;99.90
45012;DHT22;63444;48.148;11.542;2023-02-04T10:32:32;6.30;99.90
45012;DHT22;63444;48.148;11.542;2023-02-04T10:34:59;6.40;99.90
45012;DHT22;63444;48.148;11.542;2023-02-04T10:37:25;6.40;99.90
45012;DHT22;63444;48.148;11.542;2023-02-04T10:39:51;6.50;99.90
45012;DHT22;63444;48.148;11.542;2023-02-04T10:42:26;6.40;99.90
45012;DHT22;63444;48.148;11.542;2023-02-04T10:44:52;6.40;99.90
45012;DHT22;63444;48.148;11.542;2023-02-04T10:47:20;6.50;99.90
45012;DHT22;63444;48.148;11.542;2023-02-04T10:52:38;6.60;99.90
45012;DHT22;63444;48.148;11.542;2023-02-04T10:55:07;6.70;99.90
45012;DHT22;63444;48.148;11.542;2023-02-04T10:57:38;6.90;99.90
45012;DHT22;63444;48.148;11.542;2023-02-04T11:00:15;7.50;99.90
45012;DHT22;63444;48.148;11.542;2023-02-04T11:03:01;8.00;99.90
45012;DHT22;63444;48.148;11.542;2023-02-04T11:05:33;8.20;99.90
45012;DHT22;63444;48.148;11.542;2023-02-04T11:08:00;8.10;99.90
45012;DHT22;63444;48.148;11.542;2023-02-04T11:10:32;7.90;99.90
45012;DHT22;63444;48.148;11.542;2023-02-04T11:13:05;7.90;99.90
45012;DHT22;63444;48.148;11.542;2023-02-04T11:15:49;7.80;99.90
45012;DHT22;63444;48.148;11.542;2023-02-04T11:20:48;7.80;99.90
45012;DHT22;63444;48.148;11.542;2023-02-04T11:26:12;7.80;99.90
45012;DHT22;63444;48.148;11.542;2023-02-04T11:39:23;10.30;99.90
45012;DHT22;63444;48.148;11.542;2023-02-04T11:41:51;12.20;99.90
45012;DHT22;63444;48.148;11.542;2023-02-04T11:44:17;13.60;99.90
45012;DHT22;63444;48.148;11.542;2023-02-04T11:46:51;15.10;99.60
45012;DHT22;63444;48.148;11.542;2023-02-04T11:49:21;15.90;97.50
45012;DHT22;63444;48.148;11.542;2023-02-04T11:51:48;16.70;94.70
45012;DHT22;63444;48.148;11.542;2023-02-04T11:54:16;16.70;93.30
45012;DHT22;63444;48.148;11.542;2023-02-04T11:56:47;16.80;93.40
45012;DHT22;63444;48.148;11.542;2023-02-04T11:59:17;16.10;92.60
45012;DHT22;63444;48.148;11.542;2023-02-04T12:01:45;15.30;92.80
45012;DHT22;63444;48.148;11.542;2023-02-04T12:04:23;14.50;93.10
45012;DHT22;63444;48.148;11.542;2023-02-04T12:07:02;13.80;93.50
45012;DHT22;63444;48.148;11.542;2023-02-04T12:09:30;13.30;94.30
45012;DHT22;63444;48.148;11.542;2023-02-04T12:11:58;13.10;94.70
45012;DHT22;63444;48.148;11.542;2023-02-04T12:14:32;13.00;94.90
45012;DHT22;63444;48.148;11.542;2023-02-04T12:16:58;12.90;95.00
45012;DHT22;63444;48.148;11.542;2023-02-04T12:19:26;12.60;95.00
45012;DHT22;63444;48.148;11.542;2023-02-04T12:21:51;12.30;95.30
45012;DHT22;63444;48.148;11.542;2023-02-04T12:24:19;12.00;95.50
45012;DHT22;63444;48.148;11.542;2023-02-04T12:26:45;11.70;95.90
45012;DHT22;63444;48.148;11.542;2023-02-04T12:29:10;11.20;96.20
45012;DHT22;63444;48.148;11.542;2023-02-04T12:31:37;10.80;96.50
45012;DHT22;63444;48.148;11.542;2023-02-04T12:34:03;10.40;96.40
45012;DHT22;63444;48.148;11.542;2023-02-04T12:36:29;10.10;95.80
45012;DHT22;63444;48.148;11.542;2023-02-04T12:38:58;10.00;96.80
45012;DHT22;63444;48.148;11.542;2023-02-04T12:41:24;10.00;97.40
45012;DHT22;63444;48.148;11.542;2023-02-04T12:43:52;9.90;98.30
45012;DHT22;63444;48.148;11.542;2023-02-04T12:46:20;9.60;98.40
45012;DHT22;63444;48.148;11.542;2023-02-04T12:48:45;9.50;98.60
45012;DHT22;63444;48.148;11.542;2023-02-04T12:51:11;9.40;98.90
45012;DHT22;63444;48.148;11.542;2023-02-04T12:53:36;9.20;98.90
45012;DHT22;63444;48.148;11.542;2023-02-04T12:56:02;9.10;98.90
45012;DHT22;63444;48.148;11.542;2023-02-04T12:58:28;9.00;99.10
45012;DHT22;63444;48.148;11.542;2023-02-04T13:00:54;8.90;99.40
45012;DHT22;63444;48.148;11.542;2023-02-04T13:03:20;8.90;99.60
45012;DHT22;63444;48.148;11.542;2023-02-04T13:05:47;8.80;99.60
45012;DHT22;63444;48.148;11.542;2023-02-04T13:08:13;8.80;99.90
45012;DHT22;63444;48.148;11.542;2023-02-04T13:10:39;8.60;99.90
45012;DHT22;63444;48.148;11.542;2023-02-04T13:13:04;8.60;99.80
45012;DHT22;63444;48.148;11.542;2023-02-04T13:15:30;8.60;99.90
45012;DHT22;63444;48.148;11.542;2023-02-04T13:17:55;8.50;99.90
45012;DHT22;63444;48.148;11.542;2023-02-04T13:20:21;8.50;99.90
45012;DHT22;63444;48.148;11.542;2023-02-04T13:22:47;8.40;99.90
45012;DHT22;63444;48.148;11.542;2023-02-04T13:25:14;8.40;99.90
45012;DHT22;63444;48.148;11.542;2023-02-04T13:27:39;8.40;99.90
45012;DHT22;63444;48.148;11.542;2023-02-04T13:30:07;8.30;99.90
45012;DHT22;63444;48.148;11.542;2023-02-04T13:32:33;8.30;99.90
45012;DHT22;63444;48.148;11.542;2023-02-04T13:34:59;8.20;99.90
45012;DHT22;63444;48.148;11.542;2023-02-04T13:37:24;8.10;99.90
45012;DHT22;63444;48.148;11.542;2023-02-04T13:39:50;8.00;99.90
45012;DHT22;63444;48.148;11.542;2023-02-04T13:42:15;7.90;99.90
45012;DHT22;63444;48.148;11.542;2023-02-04T13:44:41;7.90;99.90
45012;DHT22;63444;48.148;11.542;2023-02-04T13:47:07;7.90;99.90
45012;DHT22;63444;48.148;11.542;2023-02-04T13:49:32;7.90;99.90
45012;DHT22;63444;48.148;11.542;2023-02-04T13:51:58;7.80;99.90
45012;DHT22;63444;48.148;11.542;2023-02-04T13:54:24;7.70;99.90
45012;DHT22;63444;48.148;11.542;2023-02-04T13:56:49;7.70;99.90
45012;DHT22;63444;48.148;11.542;2023-02-04T13:59:15;7.60;99.90
45012;DHT22;63444;48.148;11.542;2023-02-04T14:01:41;7.60;99.90
45012;DHT22;63444;48.148;11.542;2023-02-04T14:04:06;7.50;99.90
45012;DHT22;63444;48.148;11.542;2023-02-04T14:06:32;7.50;99.90
45012;DHT22;63444;48.148;11.542;2023-02-04T14:09:03;7.50;99.90
45012;DHT22;63444;48.148;11.542;2023-02-04T14:11:28;7.50;99.90
45012;DHT22;63444;48.148;11.542;2023-02-04T14:13:54;7.50;99.90
45012;DHT22;63444;48.148;11.542;2023-02-04T14:16:20;7.50;99.90
45012;DHT22;63444;48.148;11.542;2023-02-04T14:18:46;7.40;99.90
45012;DHT22;63444;48.148;11.542;2023-02-04T14:21:12;7.40;99.90
45012;DHT22;63444;48.148;11.542;2023-02-04T14:23:37;7.40;99.90
45012;DHT22;63444;48.148;11.542;2023-02-04T14:26:03;7.50;99.90
45012;DHT22;63444;48.148;11.542;2023-02-04T14:28:29;7.50;99.90
45012;DHT22;63444;48.148;11.542;2023-02-04T14:30:54;7.60;99.90
45012;DHT22;63444;48.148;11.542;2023-02-04T14:33:20;7.60;99.90
45012;DHT22;63444;48.148;11.542;2023-02-04T14:35:46;7.60;99.90
45012;DHT22;63444;48.148;11.542;2023-02-04T14:38:12;7.60;99.90
45012;DHT22;63444;48.148;11.542;2023-02-04T14:40:41;7.50;99.90
45012;DHT22;63444;48.148;11.542;2023-02-04T14:43:06;7.40;99.90
45012;DHT22;63444;48.148;11.542;2023-02-04T14:45:32;7.40;99.90
45012;DHT22;63444;48.148;11.542;2023-02-04T14:47:57;7.40;99.90
45012;DHT22;63444;48.148;11.542;2023-02-04T14:50:25;7.40;99.90
45012;DHT22;63444;48.148;11.542;2023-02-04T14:52:53;7.20;99.90
45012;DHT22;63444;48.148;11.542;2023-02-04T14:55:19;7.10;99.90
45012;DHT22;63444;48.148;11.542;2023-02-04T14:57:44;7.00;99.90
45012;DHT22;63444;48.148;11.542;2023-02-04T15:00:10;7.00;99.90
45012;DHT22;63444;48.148;11.542;2023-02-04T15:02:36;7.00;99.90
45012;DHT22;63444;48.148;11.542;2023-02-04T15:05:02;7.00;99.90
45012;DHT22;63444;48.148;11.542;2023-02-04T15:07:27;7.10;99.90
45012;DHT22;63444;48.148;11.542;2023-02-04T15:09:53;7.00;99.90
45012;DHT22;63444;48.148;11.542;2023-02-04T15:12:19;7.10;99.90
45012;DHT22;63444;48.148;11.542;2023-02-04T15:14:46;7.10;99.90
45012;DHT22;63444;48.148;11.542;2023-02-04T15:17:12;7.10;99.90
45012;DHT22;63444;48.148;11.542;2023-02-04T15:19:39;7.00;99.90
45012;DHT22;63444;48.148;11.542;2023-02-04T15:22:05;7.00;99.90
45012;DHT22;63444;48.148;11.542;2023-02-04T15:24:32;6.90;99.90
45012;DHT22;63444;48.148;11.542;2023-02-04T15:26:57;6.90;99.90
45012;DHT22;63444;48.148;11.542;2023-02-04T15:29:23;7.00;99.90
45012;DHT22;63444;48.148;11.542;2023-02-04T15:31:48;6.90;99.90
45012;DHT22;63444;48.148;11.542;2023-02-04T15:34:14;6.90;99.90
45012;DHT22;63444;48.148;11.542;2023-02-04T15:36:40;6.90;99.90
45012;DHT22;63444;48.148;11.542;2023-02-04T15:39:06;6.90;99.90
45012;DHT22;63444;48.148;11.542;2023-02-04T15:41:32;6.80;99.90
45012;DHT22;63444;48.148;11.542;2023-02-04T15:43:58;6.80;99.90
45012;DHT22;63444;48.148;11.542;2023-02-04T15:46:23;6.80;99.90